createdAt,value
2019-03-20T00:02:17.049Z,102502.00
2019-03-20T00:04:50.013Z,102510.00
2019-03-20T00:07:19.490Z,102517.00
2019-03-20T00:09:49.880Z,102511.00
2019-03-20T00:12:20.253Z,102514.00
2019-03-20T00:14:50.640Z,102502.00
2019-03-20T00:17:21.169Z,102522.00
2019-03-20T00:19:51.555Z,102519.00
2019-03-20T00:22:21.931Z,102508.00
2019-03-20T00:24:52.328Z,102513.00
2019-03-20T00:27:22.700Z,102515.00
2019-03-20T00:29:53.078Z,102516.00
2019-03-20T00:32:23.466Z,102514.00
2019-03-20T00:35:00.787Z,102518.00
2019-03-20T00:37:25.924Z,102508.00
2019-03-20T00:39:56.320Z,102513.00
2019-03-20T00:42:26.691Z,102515.00
2019-03-20T00:44:57.081Z,102512.00
2019-03-20T00:47:27.445Z,102511.00
2019-03-20T00:49:58.162Z,102516.00
2019-03-20T00:52:29.540Z,102520.00
2019-03-20T00:54:59.942Z,102513.00
2019-03-20T00:57:30.308Z,102510.00
2019-03-20T01:00:01.662Z,102519.00
2019-03-20T01:02:32.024Z,102509.00
2019-03-20T01:05:12.161Z,102513.00
2019-03-20T01:07:35.773Z,102515.00
2019-03-20T01:10:13.326Z,102517.00
2019-03-20T01:12:43.686Z,102512.00
2019-03-20T01:15:15.777Z,102517.00
2019-03-20T01:17:46.587Z,102514.00
2019-03-20T01:20:19.275Z,102509.00
2019-03-20T01:22:51.081Z,102511.00
2019-03-20T01:25:21.635Z,102524.00
2019-03-20T01:27:51.995Z,102524.00
2019-03-20T01:30:39.380Z,102523.00
2019-03-20T01:33:16.256Z,102521.00
2019-03-20T01:35:46.633Z,102520.00
2019-03-20T01:38:16.995Z,102513.00
2019-03-20T01:40:47.382Z,102516.00
2019-03-20T01:43:17.749Z,102519.00
2019-03-20T01:45:48.234Z,102514.00
2019-03-20T01:48:18.601Z,102516.00
2019-03-20T01:50:48.982Z,102527.00
2019-03-20T01:53:19.350Z,102518.00
2019-03-20T01:55:49.735Z,102525.00
2019-03-20T01:58:20.103Z,102525.00
2019-03-20T02:00:50.490Z,102535.00
2019-03-20T02:03:20.857Z,102524.00
2019-03-20T02:05:51.249Z,102527.00
2019-03-20T02:08:21.606Z,102517.00
2019-03-20T02:10:51.988Z,102521.00
2019-03-20T02:13:22.353Z,102525.00
2019-03-20T02:15:52.845Z,102532.00
2019-03-20T02:18:23.213Z,102531.00
2019-03-20T02:20:53.605Z,102535.00
2019-03-20T02:23:23.964Z,102544.00
2019-03-20T02:25:54.364Z,102537.00
2019-03-20T02:28:24.728Z,102535.00
2019-03-20T02:30:55.123Z,102535.00
2019-03-20T02:33:25.487Z,102534.00
2019-03-20T02:35:56.035Z,102540.00
2019-03-20T02:38:27.372Z,102536.00
2019-03-20T02:40:57.770Z,102533.00
2019-03-20T02:43:28.122Z,102545.00
2019-03-20T02:45:58.513Z,102535.00
2019-03-20T02:48:28.880Z,102535.00
2019-03-20T02:50:59.273Z,102550.00
2019-03-20T02:53:29.638Z,102541.00
2019-03-20T02:56:00.024Z,102539.00
2019-03-20T02:58:31.459Z,102538.00
2019-03-20T03:01:01.850Z,102540.00
2019-03-20T03:03:33.184Z,102553.00
2019-03-20T03:06:07.196Z,102551.00
2019-03-20T03:08:35.773Z,102554.00
2019-03-20T03:11:06.217Z,102560.00
2019-03-20T03:13:36.582Z,102549.00
2019-03-20T03:16:06.969Z,102553.00
2019-03-20T03:18:38.305Z,102558.00
2019-03-20T03:21:08.697Z,102556.00
2019-03-20T03:23:39.058Z,102546.00
2019-03-20T03:26:09.445Z,102551.00
2019-03-20T03:28:39.807Z,102548.00
2019-03-20T03:31:10.297Z,102550.00
2019-03-20T03:33:40.650Z,102549.00
2019-03-20T03:36:21.115Z,102548.00
2019-03-20T03:38:43.261Z,102555.00
2019-03-20T03:41:25.954Z,102559.00
2019-03-20T03:43:56.304Z,102559.00
2019-03-20T03:46:26.697Z,102552.00
2019-03-20T03:48:57.070Z,102555.00
2019-03-20T03:51:27.446Z,102563.00
2019-03-20T03:53:57.809Z,102562.00
2019-03-20T03:56:28.197Z,102568.00
2019-03-20T03:58:58.560Z,102570.00
2019-03-20T04:01:28.959Z,102568.00
2019-03-20T04:03:59.310Z,102569.00
2019-03-20T04:06:35.357Z,102574.00
2019-03-20T04:09:01.768Z,102564.00
2019-03-20T04:11:33.222Z,102575.00
2019-03-20T04:14:03.582Z,102576.00
2019-03-20T04:16:35.034Z,102575.00
2019-03-20T04:19:05.399Z,102572.00
2019-03-20T04:21:35.855Z,102576.00
2019-03-20T04:24:06.226Z,102584.00
2019-03-20T04:26:36.605Z,102576.00
2019-03-20T04:29:06.969Z,102582.00
2019-03-20T04:31:37.351Z,102580.00
2019-03-20T04:34:07.713Z,102597.00
2019-03-20T04:36:47.122Z,102588.00
2019-03-20T04:39:10.161Z,102591.00
2019-03-20T04:41:40.544Z,102597.00
2019-03-20T04:44:10.909Z,102590.00
2019-03-20T04:46:41.346Z,102596.00
2019-03-20T04:49:11.765Z,102603.00
2019-03-20T04:51:42.146Z,102602.00
2019-03-20T04:54:12.509Z,102602.00
2019-03-20T04:56:42.966Z,102598.00
2019-03-20T04:59:15.005Z,102599.00
2019-03-20T05:01:45.391Z,102601.00
2019-03-20T05:04:15.761Z,102601.00
2019-03-20T05:06:46.143Z,102605.00
2019-03-20T05:09:16.499Z,102615.00
2019-03-20T05:11:46.897Z,102614.00
2019-03-20T05:14:17.353Z,102615.00
2019-03-20T05:16:47.747Z,102598.00
2019-03-20T05:19:18.108Z,102603.00
2019-03-20T05:21:48.487Z,102599.00
2019-03-20T05:24:18.852Z,102608.00
2019-03-20T05:26:49.239Z,102611.00
2019-03-20T05:29:19.606Z,102613.00
2019-03-20T05:31:50.013Z,102615.00
2019-03-20T05:34:20.395Z,102617.00
2019-03-20T05:36:51.741Z,102615.00
2019-03-20T05:39:22.102Z,102619.00
2019-03-20T05:41:52.491Z,102628.00
2019-03-20T05:44:22.854Z,102644.00
2019-03-20T05:46:53.233Z,102638.00
2019-03-20T05:49:23.596Z,102634.00
2019-03-20T05:51:53.978Z,102626.00
2019-03-20T05:54:24.340Z,102631.00
2019-03-20T05:56:54.731Z,102633.00
2019-03-20T05:59:25.112Z,102630.00
2019-03-20T06:01:55.478Z,102632.00
2019-03-20T06:04:25.863Z,102630.00
2019-03-20T06:06:56.225Z,102632.00
2019-03-20T06:09:26.602Z,102630.00
2019-03-20T06:11:56.960Z,102630.00
2019-03-20T06:14:27.328Z,102631.00
2019-03-20T06:16:57.682Z,102633.00
2019-03-20T06:19:28.065Z,102627.00
2019-03-20T06:21:58.411Z,102639.00
2019-03-20T06:24:28.785Z,102640.00
2019-03-20T06:27:00.106Z,102643.00
2019-03-20T06:29:30.482Z,102650.00
2019-03-20T06:32:00.833Z,102661.00
2019-03-20T06:34:32.279Z,102667.00
2019-03-20T06:37:02.629Z,102664.00
2019-03-20T06:39:33.001Z,102663.00
2019-03-20T06:42:22.685Z,102673.00
2019-03-20T06:44:53.056Z,102677.00
2019-03-20T06:47:23.405Z,102671.00
2019-03-20T06:49:53.785Z,102685.00
2019-03-20T06:52:24.140Z,102688.00
2019-03-20T06:54:54.509Z,102678.00
2019-03-20T06:57:24.857Z,102682.00
2019-03-20T07:00:22.046Z,102678.00
2019-03-20T07:02:52.758Z,102692.00
2019-03-20T07:05:54.996Z,102692.00
2019-03-20T07:08:29.988Z,102689.00
2019-03-20T07:11:08.469Z,102688.00
2019-03-20T07:13:38.846Z,102689.00
2019-03-20T07:16:09.198Z,102696.00
2019-03-20T07:18:39.576Z,102689.00
2019-03-20T07:21:10.898Z,102690.00
2019-03-20T07:23:41.269Z,102688.00
2019-03-20T07:26:11.622Z,102693.00
2019-03-20T07:28:41.999Z,102689.00
2019-03-20T07:31:15.709Z,102687.00
2019-03-20T07:33:44.438Z,102693.00
2019-03-20T07:36:14.796Z,102697.00
2019-03-20T07:38:45.175Z,102690.00
2019-03-20T07:41:15.528Z,102688.00
2019-03-20T07:43:45.907Z,102686.00
2019-03-20T07:46:16.269Z,102693.00
2019-03-20T07:48:46.659Z,102685.00
2019-03-20T07:51:17.021Z,102688.00
2019-03-20T07:53:47.412Z,102683.00
2019-03-20T07:56:37.115Z,102676.00
2019-03-20T07:59:07.496Z,102696.00
2019-03-20T08:01:37.861Z,102701.00
2019-03-20T08:04:08.244Z,102706.00
2019-03-20T08:06:38.604Z,102705.00
2019-03-20T08:09:09.064Z,102718.00
2019-03-20T08:11:39.428Z,102727.00
2019-03-20T08:14:09.820Z,102717.00
2019-03-20T08:16:40.178Z,102719.00
2019-03-20T08:19:10.579Z,102717.00
2019-03-20T08:21:40.943Z,102718.00
2019-03-20T08:24:12.204Z,102725.00
2019-03-20T08:26:42.572Z,102730.00
2019-03-20T08:29:12.955Z,102723.00
2019-03-20T08:31:43.322Z,102729.00
2019-03-20T08:34:13.716Z,102727.00
2019-03-20T08:36:44.066Z,102734.00
2019-03-20T08:39:14.451Z,102742.00
2019-03-20T08:41:44.815Z,102740.00
2019-03-20T08:44:15.203Z,102738.00
2019-03-20T08:46:45.572Z,102742.00
2019-03-20T08:49:15.969Z,102729.00
2019-03-20T08:51:46.339Z,102737.00
2019-03-20T08:54:16.765Z,102738.00
2019-03-20T08:56:47.154Z,102738.00
2019-03-20T08:59:18.209Z,102739.00
2019-03-20T09:01:48.671Z,102739.00
2019-03-20T09:04:19.034Z,102747.00
2019-03-20T09:06:49.427Z,102755.00
2019-03-20T09:09:19.787Z,102748.00
2019-03-20T09:11:50.198Z,102757.00
2019-03-20T09:14:20.554Z,102755.00
2019-03-20T09:16:51.451Z,102761.00
2019-03-20T09:19:22.123Z,102765.00
2019-03-20T09:21:52.501Z,102771.00
2019-03-20T09:24:22.862Z,102772.00
2019-03-20T09:26:53.296Z,102778.00
2019-03-20T09:29:23.627Z,102776.00
2019-03-20T09:31:54.006Z,102769.00
2019-03-20T09:34:24.364Z,102767.00
2019-03-20T09:36:54.752Z,102777.00
2019-03-20T09:39:25.130Z,102770.00
2019-03-20T09:41:55.505Z,102766.00
2019-03-20T09:44:26.832Z,102771.00
2019-03-20T09:46:57.222Z,102769.00
2019-03-20T09:49:27.585Z,102775.00
2019-03-20T09:51:57.968Z,102771.00
2019-03-20T09:54:28.325Z,102769.00
2019-03-20T09:56:58.708Z,102776.00
2019-03-20T09:59:29.069Z,102772.00
2019-03-20T10:01:59.468Z,102776.00
2019-03-20T10:04:29.828Z,102771.00
2019-03-20T10:07:00.219Z,102767.00
2019-03-20T10:09:30.576Z,102775.00
2019-03-20T10:12:01.129Z,102769.00
2019-03-20T10:14:31.493Z,102764.00
2019-03-20T10:17:01.951Z,102765.00
2019-03-20T10:19:32.315Z,102758.00
2019-03-20T10:22:02.706Z,102759.00
2019-03-20T10:24:33.074Z,102747.00
2019-03-20T10:27:03.455Z,102749.00
2019-03-20T10:29:33.819Z,102742.00
2019-03-20T10:32:04.272Z,102740.00
2019-03-20T10:34:39.463Z,102739.00
2019-03-20T10:37:06.820Z,102741.00
2019-03-20T10:39:37.185Z,102732.00
2019-03-20T10:42:07.576Z,102728.00
2019-03-20T10:44:37.942Z,102730.00
2019-03-20T10:47:08.329Z,102739.00
2019-03-20T10:49:38.696Z,102747.00
2019-03-20T10:52:09.079Z,102748.00
2019-03-20T10:54:39.445Z,102751.00
2019-03-20T10:57:09.829Z,102747.00
2019-03-20T10:59:40.189Z,102754.00
2019-03-20T11:02:10.639Z,102754.00
2019-03-20T11:04:40.996Z,102746.00
2019-03-20T11:07:11.389Z,102755.00
2019-03-20T11:09:41.751Z,102745.00
2019-03-20T11:12:12.140Z,102732.00
2019-03-20T11:14:42.510Z,102742.00
2019-03-20T11:17:12.900Z,102763.00
2019-03-20T11:19:43.266Z,102769.00
2019-03-20T11:22:18.767Z,102730.00
2019-03-20T11:24:45.714Z,102749.00
2019-03-20T11:27:17.086Z,102759.00
2019-03-20T11:29:47.447Z,102754.00
2019-03-20T11:32:17.938Z,102743.00
2019-03-20T11:34:48.298Z,102736.00
2019-03-20T11:37:19.763Z,102727.00
2019-03-20T11:39:52.710Z,102711.00
2019-03-20T11:42:23.268Z,102731.00
2019-03-20T11:44:53.646Z,102715.00
2019-03-20T11:47:24.051Z,102719.00
2019-03-20T11:49:54.418Z,102724.00
2019-03-20T11:52:24.814Z,102740.00
2019-03-20T11:54:55.178Z,102743.00
2019-03-20T11:57:25.560Z,102730.00
2019-03-20T11:59:55.956Z,102724.00
2019-03-20T12:02:28.379Z,102726.00
2019-03-20T12:04:58.475Z,102723.00
2019-03-20T12:07:28.835Z,102739.00
2019-03-20T12:09:59.224Z,102747.00
2019-03-20T12:12:30.577Z,102750.00
2019-03-20T12:15:00.965Z,102741.00
2019-03-20T12:17:31.456Z,102732.00
2019-03-20T12:20:01.821Z,102730.00
2019-03-20T12:22:32.302Z,102726.00
2019-03-20T12:25:02.675Z,102717.00
2019-03-20T12:27:33.039Z,102726.00
2019-03-20T12:30:04.970Z,102717.00
2019-03-20T12:32:35.338Z,102715.00
2019-03-20T12:35:12.222Z,102719.00
2019-03-20T12:37:42.715Z,102722.00
2019-03-20T12:40:28.500Z,102728.00
2019-03-20T12:42:59.037Z,102726.00
2019-03-20T12:45:43.208Z,102726.00
2019-03-20T12:48:17.451Z,102731.00
2019-03-20T12:50:47.847Z,102728.00
2019-03-20T12:53:23.135Z,102722.00
2019-03-20T12:55:56.546Z,102708.00
2019-03-20T12:58:26.912Z,102712.00
2019-03-20T13:00:57.296Z,102713.00
2019-03-20T13:03:30.624Z,102717.00
2019-03-20T13:06:00.822Z,102704.00
2019-03-20T13:08:31.183Z,102704.00
2019-03-20T13:11:01.572Z,102696.00
2019-03-20T13:13:31.943Z,102708.00
2019-03-20T13:16:02.338Z,102710.00
2019-03-20T13:18:32.706Z,102699.00
2019-03-20T13:21:03.098Z,102693.00
2019-03-20T13:23:36.836Z,102685.00
2019-03-20T13:26:07.221Z,102687.00
2019-03-20T13:28:37.590Z,102686.00
2019-03-20T13:31:21.153Z,102690.00
2019-03-20T13:33:51.516Z,102684.00
2019-03-20T13:36:21.899Z,102678.00
2019-03-20T13:38:52.346Z,102678.00
2019-03-20T13:41:23.010Z,102676.00
2019-03-20T13:43:53.381Z,102674.00
2019-03-20T13:46:23.997Z,102671.00
2019-03-20T13:48:54.361Z,102668.00
2019-03-20T13:51:25.846Z,102661.00
2019-03-20T13:53:56.204Z,102668.00
2019-03-20T13:56:26.804Z,102671.00
2019-03-20T13:58:57.200Z,102667.00
2019-03-20T14:01:27.770Z,102667.00
2019-03-20T14:03:58.246Z,102667.00
2019-03-20T14:06:28.945Z,102674.00
2019-03-20T14:08:59.299Z,102672.00
2019-03-20T14:11:32.436Z,102679.00
2019-03-20T14:14:02.801Z,102684.00
2019-03-20T14:16:33.190Z,102675.00
2019-03-20T14:19:03.553Z,102683.00
2019-03-20T14:21:33.947Z,102686.00
2019-03-20T14:24:04.424Z,102692.00
2019-03-20T14:26:34.817Z,102685.00
2019-03-20T14:29:05.187Z,102681.00
2019-03-20T14:31:35.560Z,102672.00
2019-03-20T14:34:05.935Z,102678.00
2019-03-20T14:36:36.334Z,102675.00
2019-03-20T14:39:08.182Z,102683.00
2019-03-20T14:41:38.567Z,102672.00
2019-03-20T14:44:08.936Z,102666.00
2019-03-20T14:46:39.331Z,102663.00
2019-03-20T14:49:09.771Z,102660.00
2019-03-20T14:51:40.159Z,102663.00
2019-03-20T14:54:10.522Z,102665.00
2019-03-20T14:56:40.904Z,102657.00
2019-03-20T14:59:11.268Z,102653.00
2019-03-20T15:01:41.654Z,102644.00
2019-03-20T15:04:12.058Z,102644.00
2019-03-20T15:06:42.448Z,102631.00
2019-03-20T15:09:12.879Z,102631.00
2019-03-20T15:11:43.269Z,102635.00
2019-03-20T15:14:13.626Z,102630.00
2019-03-20T15:16:44.013Z,102645.00
2019-03-20T15:19:14.367Z,102642.00
2019-03-20T15:21:44.757Z,102640.00
2019-03-20T15:24:15.119Z,102633.00
2019-03-20T15:26:45.505Z,102626.00
2019-03-20T15:29:15.865Z,102638.00
2019-03-20T15:31:46.255Z,102629.00
2019-03-20T15:34:16.621Z,102622.00
2019-03-20T15:36:47.007Z,102617.00
2019-03-20T15:39:17.374Z,102618.00
2019-03-20T15:41:47.762Z,102624.00
2019-03-20T15:44:18.118Z,102615.00
2019-03-20T15:46:48.510Z,102615.00
2019-03-20T15:49:19.007Z,102607.00
2019-03-20T15:51:49.757Z,102610.00
2019-03-20T15:54:26.521Z,102609.00
2019-03-20T15:57:00.277Z,102608.00
2019-03-20T15:59:30.620Z,102609.00
2019-03-20T16:02:06.985Z,102610.00
2019-03-20T16:04:37.342Z,102618.00
2019-03-20T16:07:07.730Z,102606.00
2019-03-20T16:09:38.097Z,102615.00
2019-03-20T16:12:08.487Z,102607.00
2019-03-20T16:14:40.118Z,102619.00
2019-03-20T16:17:10.693Z,102614.00
2019-03-20T16:19:41.490Z,102621.00
2019-03-20T16:22:11.929Z,102616.00
2019-03-20T16:24:42.267Z,102616.00
2019-03-20T16:27:12.633Z,102622.00
2019-03-20T16:29:43.022Z,102622.00
2019-03-20T16:32:13.388Z,102622.00
2019-03-20T16:34:43.799Z,102621.00
2019-03-20T16:37:17.062Z,102625.00
2019-03-20T16:39:47.533Z,102630.00
2019-03-20T16:42:17.903Z,102628.00
2019-03-20T16:44:48.360Z,102624.00
2019-03-20T16:47:18.728Z,102628.00
2019-03-20T16:49:49.106Z,102616.00
2019-03-20T16:52:19.469Z,102625.00
2019-03-20T16:54:49.855Z,102621.00
2019-03-20T16:57:21.853Z,102625.00
2019-03-20T16:59:52.386Z,102626.00
2019-03-20T17:02:42.088Z,102649.00
2019-03-20T17:05:12.975Z,102654.00
2019-03-20T17:07:43.350Z,102657.00
2019-03-20T17:10:20.753Z,102652.00
2019-03-20T17:12:51.216Z,102653.00
2019-03-20T17:15:29.523Z,102650.00
2019-03-20T17:17:59.889Z,102659.00
2019-03-20T17:20:30.274Z,102652.00
2019-03-20T17:23:00.704Z,102656.00
2019-03-20T17:25:31.090Z,102652.00
2019-03-20T17:28:01.445Z,102666.00
2019-03-20T17:30:43.371Z,102662.00
2019-03-20T17:33:13.908Z,102658.00
2019-03-20T17:35:47.399Z,102659.00
2019-03-20T17:38:17.769Z,102663.00
2019-03-20T17:40:48.170Z,102672.00
2019-03-20T17:43:18.531Z,102667.00
2019-03-20T17:45:49.044Z,102669.00
2019-03-20T17:48:19.370Z,102671.00
2019-03-20T17:50:49.748Z,102679.00
2019-03-20T17:53:20.108Z,102679.00
2019-03-20T17:55:50.595Z,102669.00
2019-03-20T17:58:20.960Z,102677.00
2019-03-20T18:00:55.893Z,102679.00
2019-03-20T18:03:26.250Z,102684.00
2019-03-20T18:05:56.638Z,102689.00
2019-03-20T18:08:26.997Z,102698.00
2019-03-20T18:10:57.452Z,102691.00
2019-03-20T18:13:27.817Z,102694.00
2019-03-20T18:15:58.199Z,102697.00
2019-03-20T18:18:28.560Z,102697.00
2019-03-20T18:20:58.938Z,102699.00
2019-03-20T18:23:29.315Z,102705.00
2019-03-20T18:26:00.121Z,102699.00
2019-03-20T18:28:30.585Z,102710.00
2019-03-20T18:31:00.964Z,102713.00
2019-03-20T18:33:31.319Z,102704.00
2019-03-20T18:36:01.705Z,102708.00
2019-03-20T18:38:32.075Z,102709.00
2019-03-20T18:41:02.533Z,102701.00
2019-03-20T18:43:32.902Z,102715.00
2019-03-20T18:46:03.299Z,102707.00
2019-03-20T18:48:33.658Z,102711.00
2019-03-20T18:51:04.322Z,102714.00
2019-03-20T18:53:34.677Z,102721.00
2019-03-20T18:56:05.255Z,102720.00
2019-03-20T18:58:35.616Z,102727.00
2019-03-20T19:01:05.994Z,102723.00
2019-03-20T19:03:57.213Z,102717.00
2019-03-20T19:06:30.916Z,102717.00
2019-03-20T19:09:01.282Z,102708.00
2019-03-20T19:11:33.283Z,102706.00
2019-03-20T19:14:03.669Z,102703.00
2019-03-20T19:16:34.045Z,102707.00
2019-03-20T19:19:04.409Z,102699.00
2019-03-20T19:21:34.792Z,102715.00
2019-03-20T19:24:05.486Z,102713.00
2019-03-20T19:26:35.903Z,102716.00
2019-03-20T19:29:06.600Z,102709.00
2019-03-20T19:31:36.982Z,102709.00
2019-03-20T19:34:08.310Z,102717.00
2019-03-20T19:36:38.692Z,102710.00
2019-03-20T19:39:09.224Z,102703.00
2019-03-20T19:41:39.604Z,102706.00
2019-03-20T19:44:09.970Z,102713.00
2019-03-20T19:46:40.420Z,102712.00
2019-03-20T19:49:11.101Z,102715.00
2019-03-20T19:51:41.488Z,102708.00
2019-03-20T19:54:11.851Z,102713.00
2019-03-20T19:56:42.236Z,102712.00
2019-03-20T19:59:13.672Z,102702.00
2019-03-20T20:01:44.170Z,102704.00
2019-03-20T20:04:14.575Z,102698.00
2019-03-20T20:06:44.963Z,102702.00
2019-03-20T20:09:15.428Z,102704.00
2019-03-20T20:11:45.795Z,102687.00
2019-03-20T20:14:16.154Z,102689.00
2019-03-20T20:16:46.541Z,102688.00
2019-03-20T20:19:16.906Z,102695.00
2019-03-20T20:21:48.360Z,102707.00
2019-03-20T20:24:18.726Z,102706.00
2019-03-20T20:26:49.113Z,102704.00
2019-03-20T20:29:19.478Z,102707.00
2019-03-20T20:31:49.860Z,102710.00
2019-03-20T20:34:40.640Z,102714.00
2019-03-20T20:37:11.036Z,102709.00
2019-03-20T20:39:42.369Z,102715.00
2019-03-20T20:42:12.808Z,102715.00
2019-03-20T20:44:43.107Z,102721.00
2019-03-20T20:47:13.532Z,102715.00
2019-03-20T20:49:44.892Z,102714.00
2019-03-20T20:52:19.649Z,102724.00
2019-03-20T20:54:47.355Z,102725.00
2019-03-20T20:57:17.747Z,102731.00
2019-03-20T21:00:13.285Z,102697.00
2019-03-20T21:02:43.744Z,102740.00
2019-03-20T21:05:14.164Z,102751.00
2019-03-20T21:07:44.559Z,102745.00
2019-03-20T21:10:21.649Z,102750.00
2019-03-20T21:12:56.959Z,102753.00
2019-03-20T21:15:45.876Z,102754.00
2019-03-20T21:18:20.895Z,102760.00
2019-03-20T21:20:51.526Z,102758.00
2019-03-20T21:24:18.134Z,102760.00
2019-03-20T21:27:08.068Z,102763.00
2019-03-20T21:30:19.464Z,102779.00
2019-03-20T21:33:14.062Z,102778.00
2019-03-20T21:36:08.451Z,102777.00
2019-03-20T21:38:38.837Z,102781.00
2019-03-20T21:41:22.694Z,102767.00
2019-03-20T21:44:34.037Z,102784.00
2019-03-20T21:47:32.669Z,102786.00
2019-03-20T21:50:31.534Z,102789.00
2019-03-20T21:53:01.893Z,102795.00
2019-03-20T21:56:19.713Z,102798.00
2019-03-20T21:59:38.398Z,102800.00
2019-03-20T22:02:43.554Z,102805.00
2019-03-20T22:06:05.602Z,102813.00
2019-03-20T22:08:35.965Z,102820.00
2019-03-20T22:11:32.050Z,102818.00
2019-03-20T22:14:17.319Z,102807.00
2019-03-20T22:17:38.076Z,102806.00
2019-03-20T22:20:28.125Z,102799.00
2019-03-20T22:23:24.138Z,102797.00
2019-03-20T22:26:33.333Z,102802.00
2019-03-20T22:29:22.033Z,102808.00
2019-03-20T22:32:23.368Z,102815.00
2019-03-20T22:35:40.077Z,102815.00
2019-03-20T22:38:18.356Z,102814.00
2019-03-20T22:41:28.139Z,102816.00
2019-03-20T22:44:01.322Z,102814.00
2019-03-20T22:46:59.845Z,102820.00
2019-03-20T22:50:22.255Z,102819.00
2019-03-20T22:53:38.294Z,102803.00
2019-03-20T22:56:21.970Z,102786.00
2019-03-20T22:58:52.415Z,102782.00
2019-03-20T23:01:36.721Z,102786.00
2019-03-20T23:04:17.432Z,102789.00
2019-03-20T23:06:47.825Z,102785.00
2019-03-20T23:09:18.200Z,102785.00
2019-03-20T23:11:48.583Z,102797.00
2019-03-20T23:14:18.952Z,102804.00
2019-03-20T23:16:49.342Z,102793.00
2019-03-20T23:19:19.712Z,102787.00
2019-03-20T23:21:50.088Z,102791.00
2019-03-20T23:24:20.458Z,102792.00
2019-03-20T23:26:50.848Z,102796.00
2019-03-20T23:29:21.208Z,102787.00
2019-03-20T23:31:51.591Z,102796.00
2019-03-20T23:34:21.949Z,102801.00
2019-03-20T23:36:52.335Z,102792.00
2019-03-20T23:39:22.718Z,102794.00
2019-03-20T23:41:53.135Z,102795.00
2019-03-20T23:44:23.502Z,102793.00
2019-03-20T23:46:54.176Z,102799.00
2019-03-20T23:49:26.475Z,102799.00
2019-03-20T23:51:57.162Z,102791.00
2019-03-20T23:54:35.482Z,102798.00
2019-03-20T23:57:05.877Z,102795.00
2019-03-20T23:59:36.243Z,102797.00
